sensor_id;sensor_type;location;lat;lon;timestamp;P1;durP1;ratioP1;P2;durP2;ratioP2
77822;SDS011;67013;49.730;17.292;2023-03-01T00:01:55;9.40;;;6.60;;
77822;SDS011;67013;49.730;17.292;2023-03-01T00:04:25;9.10;;;5.60;;
77822;SDS011;67013;49.730;17.292;2023-03-01T00:06:54;11.20;;;6.80;;
77822;SDS011;67013;49.730;17.292;2023-03-01T00:09:24;10.10;;;6.20;;
77822;SDS011;67013;49.730;17.292;2023-03-01T00:11:54;11.00;;;6.70;;
77822;SDS011;67013;49.730;17.292;2023-03-01T00:14:23;11.20;;;6.60;;
77822;SDS011;67013;49.730;17.292;2023-03-01T00:16:53;9.00;;;6.40;;
77822;SDS011;67013;49.730;17.292;2023-03-01T00:19:22;10.50;;;6.80;;
77822;SDS011;67013;49.730;17.292;2023-03-01T00:21:51;10.60;;;6.90;;
77822;SDS011;67013;49.730;17.292;2023-03-01T00:24:21;10.00;;;6.60;;
77822;SDS011;67013;49.730;17.292;2023-03-01T00:26:53;9.00;;;6.40;;
77822;SDS011;67013;49.730;17.292;2023-03-01T00:29:24;9.40;;;6.10;;
77822;SDS011;67013;49.730;17.292;2023-03-01T00:31:53;8.80;;;6.10;;
77822;SDS011;67013;49.730;17.292;2023-03-01T00:34:23;11.20;;;7.40;;
77822;SDS011;67013;49.730;17.292;2023-03-01T00:36:52;8.60;;;5.40;;
77822;SDS011;67013;49.730;17.292;2023-03-01T00:39:21;11.30;;;7.30;;
77822;SDS011;67013;49.730;17.292;2023-03-01T00:41:51;8.80;;;5.80;;
77822;SDS011;67013;49.730;17.292;2023-03-01T00:44:20;10.10;;;6.50;;
77822;SDS011;67013;49.730;17.292;2023-03-01T00:46:50;11.10;;;6.40;;
77822;SDS011;67013;49.730;17.292;2023-03-01T00:49:19;11.00;;;8.10;;
77822;SDS011;67013;49.730;17.292;2023-03-01T00:51:50;9.60;;;6.80;;
77822;SDS011;67013;49.730;17.292;2023-03-01T00:54:20;10.80;;;6.70;;
77822;SDS011;67013;49.730;17.292;2023-03-01T00:56:49;12.50;;;7.90;;
77822;SDS011;67013;49.730;17.292;2023-03-01T00:59:19;11.00;;;7.30;;
77822;SDS011;67013;49.730;17.292;2023-03-01T01:01:48;11.20;;;7.10;;
77822;SDS011;67013;49.730;17.292;2023-03-01T01:04:18;10.70;;;8.00;;
77822;SDS011;67013;49.730;17.292;2023-03-01T01:06:47;10.00;;;7.30;;
77822;SDS011;67013;49.730;17.292;2023-03-01T01:09:17;12.00;;;7.90;;
77822;SDS011;67013;49.730;17.292;2023-03-01T01:11:47;12.60;;;7.80;;
77822;SDS011;67013;49.730;17.292;2023-03-01T01:14:18;10.60;;;7.20;;
77822;SDS011;67013;49.730;17.292;2023-03-01T01:16:48;10.90;;;7.70;;
77822;SDS011;67013;49.730;17.292;2023-03-01T01:19:17;9.90;;;6.70;;
77822;SDS011;67013;49.730;17.292;2023-03-01T01:21:47;10.60;;;7.10;;
77822;SDS011;67013;49.730;17.292;2023-03-01T01:24:17;12.90;;;8.30;;
77822;SDS011;67013;49.730;17.292;2023-03-01T01:26:47;13.80;;;9.00;;
77822;SDS011;67013;49.730;17.292;2023-03-01T01:29:16;12.70;;;7.40;;
77822;SDS011;67013;49.730;17.292;2023-03-01T01:31:46;11.00;;;7.80;;
77822;SDS011;67013;49.730;17.292;2023-03-01T01:34:16;12.00;;;7.70;;
77822;SDS011;67013;49.730;17.292;2023-03-01T01:36:49;13.50;;;8.70;;
77822;SDS011;67013;49.730;17.292;2023-03-01T01:39:20;14.00;;;9.00;;
77822;SDS011;67013;49.730;17.292;2023-03-01T01:41:50;12.40;;;7.70;;
77822;SDS011;67013;49.730;17.292;2023-03-01T01:44:20;12.30;;;7.90;;
77822;SDS011;67013;49.730;17.292;2023-03-01T01:46:52;14.90;;;9.10;;
77822;SDS011;67013;49.730;17.292;2023-03-01T01:49:27;11.10;;;8.10;;
77822;SDS011;67013;49.730;17.292;2023-03-01T01:52:04;12.30;;;8.00;;
77822;SDS011;67013;49.730;17.292;2023-03-01T01:54:38;13.40;;;8.50;;
77822;SDS011;67013;49.730;17.292;2023-03-01T01:57:14;12.40;;;7.40;;
77822;SDS011;67013;49.730;17.292;2023-03-01T01:59:49;13.90;;;8.70;;
77822;SDS011;67013;49.730;17.292;2023-03-01T02:02:22;11.40;;;6.90;;
77822;SDS011;67013;49.730;17.292;2023-03-01T02:04:54;11.40;;;7.50;;
77822;SDS011;67013;49.730;17.292;2023-03-01T02:07:31;11.90;;;8.70;;
77822;SDS011;67013;49.730;17.292;2023-03-01T02:10:00;12.20;;;7.70;;
77822;SDS011;67013;49.730;17.292;2023-03-01T02:12:32;11.30;;;7.20;;
77822;SDS011;67013;49.730;17.292;2023-03-01T02:15:04;13.80;;;8.40;;
77822;SDS011;67013;49.730;17.292;2023-03-01T02:17:34;12.50;;;8.30;;
77822;SDS011;67013;49.730;17.292;2023-03-01T02:20:07;11.90;;;8.30;;
77822;SDS011;67013;49.730;17.292;2023-03-01T02:22:47;11.20;;;8.40;;
77822;SDS011;67013;49.730;17.292;2023-03-01T02:25:23;10.60;;;6.70;;
77822;SDS011;67013;49.730;17.292;2023-03-01T02:27:58;10.10;;;6.60;;
77822;SDS011;67013;49.730;17.292;2023-03-01T02:30:34;13.50;;;8.30;;
77822;SDS011;67013;49.730;17.292;2023-03-01T02:33:24;11.80;;;7.10;;
77822;SDS011;67013;49.730;17.292;2023-03-01T02:35:54;11.40;;;7.70;;
77822;SDS011;67013;49.730;17.292;2023-03-01T02:38:24;12.60;;;8.50;;
77822;SDS011;67013;49.730;17.292;2023-03-01T02:40:54;11.10;;;8.30;;
77822;SDS011;67013;49.730;17.292;2023-03-01T02:43:25;11.90;;;8.20;;
77822;SDS011;67013;49.730;17.292;2023-03-01T02:46:03;12.20;;;8.10;;
77822;SDS011;67013;49.730;17.292;2023-03-01T02:48:44;11.80;;;8.20;;
77822;SDS011;67013;49.730;17.292;2023-03-01T02:54:16;16.20;;;10.20;;
77822;SDS011;67013;49.730;17.292;2023-03-01T02:56:53;13.30;;;9.30;;
77822;SDS011;67013;49.730;17.292;2023-03-01T02:59:23;12.60;;;8.30;;
77822;SDS011;67013;49.730;17.292;2023-03-01T03:01:56;13.50;;;9.00;;
77822;SDS011;67013;49.730;17.292;2023-03-01T03:04:27;13.20;;;9.20;;
77822;SDS011;67013;49.730;17.292;2023-03-01T03:06:57;11.80;;;7.90;;
77822;SDS011;67013;49.730;17.292;2023-03-01T03:09:27;13.20;;;8.40;;
77822;SDS011;67013;49.730;17.292;2023-03-01T03:11:56;12.40;;;7.70;;
77822;SDS011;67013;49.730;17.292;2023-03-01T03:14:26;15.90;;;9.60;;
77822;SDS011;67013;49.730;17.292;2023-03-01T03:16:55;12.30;;;8.40;;
77822;SDS011;67013;49.730;17.292;2023-03-01T03:19:24;14.20;;;9.00;;
77822;SDS011;67013;49.730;17.292;2023-03-01T03:21:54;12.50;;;8.90;;
77822;SDS011;67013;49.730;17.292;2023-03-01T03:24:24;11.70;;;7.70;;
77822;SDS011;67013;49.730;17.292;2023-03-01T03:26:53;13.60;;;9.20;;
77822;SDS011;67013;49.730;17.292;2023-03-01T03:29:23;13.70;;;9.00;;
77822;SDS011;67013;49.730;17.292;2023-03-01T03:31:52;11.40;;;8.30;;
77822;SDS011;67013;49.730;17.292;2023-03-01T03:34:22;14.10;;;9.10;;
77822;SDS011;67013;49.730;17.292;2023-03-01T03:36:54;11.70;;;8.50;;
77822;SDS011;67013;49.730;17.292;2023-03-01T03:39:26;10.70;;;6.80;;
77822;SDS011;67013;49.730;17.292;2023-03-01T03:42:01;11.40;;;8.00;;
77822;SDS011;67013;49.730;17.292;2023-03-01T03:44:31;13.10;;;8.20;;
77822;SDS011;67013;49.730;17.292;2023-03-01T03:47:00;11.80;;;8.40;;
77822;SDS011;67013;49.730;17.292;2023-03-01T03:49:30;13.50;;;9.60;;
77822;SDS011;67013;49.730;17.292;2023-03-01T03:51:59;20.60;;;13.90;;
77822;SDS011;67013;49.730;17.292;2023-03-01T03:54:28;17.70;;;11.80;;
77822;SDS011;67013;49.730;17.292;2023-03-01T03:56:58;15.60;;;10.80;;
77822;SDS011;67013;49.730;17.292;2023-03-01T03:59:27;19.20;;;13.10;;
77822;SDS011;67013;49.730;17.292;2023-03-01T04:01:57;15.50;;;10.90;;
77822;SDS011;67013;49.730;17.292;2023-03-01T04:04:26;15.60;;;10.30;;
77822;SDS011;67013;49.730;17.292;2023-03-01T04:06:56;16.30;;;10.50;;
77822;SDS011;67013;49.730;17.292;2023-03-01T04:09:25;14.20;;;9.40;;
77822;SDS011;67013;49.730;17.292;2023-03-01T04:11:56;10.50;;;7.70;;
77822;SDS011;67013;49.730;17.292;2023-03-01T04:14:26;13.60;;;8.70;;
77822;SDS011;67013;49.730;17.292;2023-03-01T04:16:55;14.70;;;8.90;;
77822;SDS011;67013;49.730;17.292;2023-03-01T04:19:24;14.60;;;10.10;;
77822;SDS011;67013;49.730;17.292;2023-03-01T04:21:54;12.90;;;8.70;;
77822;SDS011;67013;49.730;17.292;2023-03-01T04:24:23;13.80;;;8.80;;
77822;SDS011;67013;49.730;17.292;2023-03-01T04:26:53;13.60;;;8.90;;
77822;SDS011;67013;49.730;17.292;2023-03-01T04:29:22;12.00;;;8.90;;
77822;SDS011;67013;49.730;17.292;2023-03-01T04:31:52;12.80;;;8.70;;
77822;SDS011;67013;49.730;17.292;2023-03-01T04:34:21;12.90;;;8.60;;
77822;SDS011;67013;49.730;17.292;2023-03-01T04:36:53;13.00;;;8.80;;
77822;SDS011;67013;49.730;17.292;2023-03-01T04:39:23;12.80;;;8.60;;
77822;SDS011;67013;49.730;17.292;2023-03-01T04:41:53;14.00;;;8.60;;
77822;SDS011;67013;49.730;17.292;2023-03-01T04:44:22;13.30;;;8.60;;
77822;SDS011;67013;49.730;17.292;2023-03-01T04:46:52;13.00;;;8.80;;
77822;SDS011;67013;49.730;17.292;2023-03-01T04:49:21;10.90;;;7.60;;
77822;SDS011;67013;49.730;17.292;2023-03-01T04:51:51;14.30;;;8.60;;
77822;SDS011;67013;49.730;17.292;2023-03-01T04:54:20;12.30;;;8.10;;
77822;SDS011;67013;49.730;17.292;2023-03-01T04:56:50;13.30;;;8.30;;
77822;SDS011;67013;49.730;17.292;2023-03-01T04:59:19;12.50;;;8.40;;
77822;SDS011;67013;49.730;17.292;2023-03-01T05:01:49;12.90;;;7.90;;
77822;SDS011;67013;49.730;17.292;2023-03-01T05:04:22;12.20;;;7.90;;
77822;SDS011;67013;49.730;17.292;2023-03-01T05:06:51;13.80;;;8.60;;
77822;SDS011;67013;49.730;17.292;2023-03-01T05:09:22;13.90;;;8.80;;
77822;SDS011;67013;49.730;17.292;2023-03-01T05:11:51;14.00;;;9.60;;
77822;SDS011;67013;49.730;17.292;2023-03-01T05:14:21;15.50;;;10.30;;
77822;SDS011;67013;49.730;17.292;2023-03-01T05:16:51;15.30;;;9.80;;
77822;SDS011;67013;49.730;17.292;2023-03-01T05:19:20;11.80;;;7.90;;
77822;SDS011;67013;49.730;17.292;2023-03-01T05:21:49;13.50;;;8.40;;
77822;SDS011;67013;49.730;17.292;2023-03-01T05:24:32;14.10;;;8.40;;
77822;SDS011;67013;49.730;17.292;2023-03-01T05:27:02;14.10;;;9.10;;
77822;SDS011;67013;49.730;17.292;2023-03-01T05:29:32;16.50;;;9.60;;
77822;SDS011;67013;49.730;17.292;2023-03-01T05:32:02;14.30;;;9.80;;
77822;SDS011;67013;49.730;17.292;2023-03-01T05:34:32;13.90;;;9.10;;
77822;SDS011;67013;49.730;17.292;2023-03-01T05:37:03;18.50;;;12.80;;
77822;SDS011;67013;49.730;17.292;2023-03-01T05:39:34;21.40;;;13.60;;
77822;SDS011;67013;49.730;17.292;2023-03-01T05:42:04;19.90;;;12.90;;
77822;SDS011;67013;49.730;17.292;2023-03-01T05:44:35;18.80;;;12.60;;
77822;SDS011;67013;49.730;17.292;2023-03-01T05:47:05;16.70;;;11.30;;
77822;SDS011;67013;49.730;17.292;2023-03-01T05:49:34;16.10;;;11.60;;
77822;SDS011;67013;49.730;17.292;2023-03-01T05:52:03;16.00;;;11.00;;
77822;SDS011;67013;49.730;17.292;2023-03-01T05:54:33;16.50;;;11.50;;
77822;SDS011;67013;49.730;17.292;2023-03-01T05:57:03;19.00;;;11.10;;
77822;SDS011;67013;49.730;17.292;2023-03-01T05:59:32;15.60;;;10.20;;
77822;SDS011;67013;49.730;17.292;2023-03-01T06:02:03;18.60;;;11.20;;
77822;SDS011;67013;49.730;17.292;2023-03-01T06:04:32;15.70;;;11.00;;
77822;SDS011;67013;49.730;17.292;2023-03-01T06:07:02;12.90;;;9.60;;
77822;SDS011;67013;49.730;17.292;2023-03-01T06:09:31;14.60;;;10.50;;
77822;SDS011;67013;49.730;17.292;2023-03-01T06:12:00;17.10;;;10.50;;
77822;SDS011;67013;49.730;17.292;2023-03-01T06:14:31;15.00;;;11.10;;
77822;SDS011;67013;49.730;17.292;2023-03-01T06:17:00;16.80;;;11.60;;
77822;SDS011;67013;49.730;17.292;2023-03-01T06:19:30;16.10;;;11.00;;
77822;SDS011;67013;49.730;17.292;2023-03-01T06:21:59;17.80;;;12.30;;
77822;SDS011;67013;49.730;17.292;2023-03-01T06:24:29;13.30;;;10.20;;
77822;SDS011;67013;49.730;17.292;2023-03-01T06:26:59;19.20;;;13.90;;
77822;SDS011;67013;49.730;17.292;2023-03-01T06:29:29;16.50;;;13.30;;
77822;SDS011;67013;49.730;17.292;2023-03-01T06:31:58;16.80;;;13.20;;
77822;SDS011;67013;49.730;17.292;2023-03-01T06:34:28;17.40;;;13.70;;
77822;SDS011;67013;49.730;17.292;2023-03-01T06:36:58;18.00;;;13.70;;
77822;SDS011;67013;49.730;17.292;2023-03-01T06:39:31;17.70;;;15.50;;
77822;SDS011;67013;49.730;17.292;2023-03-01T06:42:01;19.50;;;16.70;;
77822;SDS011;67013;49.730;17.292;2023-03-01T06:44:31;22.50;;;20.30;;
77822;SDS011;67013;49.730;17.292;2023-03-01T06:47:00;18.00;;;14.90;;
77822;SDS011;67013;49.730;17.292;2023-03-01T06:49:30;16.10;;;14.20;;
77822;SDS011;67013;49.730;17.292;2023-03-01T06:52:00;17.40;;;14.60;;
77822;SDS011;67013;49.730;17.292;2023-03-01T06:54:29;18.20;;;14.90;;
77822;SDS011;67013;49.730;17.292;2023-03-01T06:56:59;17.20;;;14.70;;
77822;SDS011;67013;49.730;17.292;2023-03-01T06:59:29;15.60;;;13.70;;
77822;SDS011;67013;49.730;17.292;2023-03-01T07:01:58;17.10;;;14.60;;
77822;SDS011;67013;49.730;17.292;2023-03-01T07:04:28;16.20;;;13.20;;
77822;SDS011;67013;49.730;17.292;2023-03-01T07:06:57;16.60;;;14.50;;
77822;SDS011;67013;49.730;17.292;2023-03-01T07:09:27;14.20;;;12.70;;
77822;SDS011;67013;49.730;17.292;2023-03-01T07:11:57;15.50;;;13.90;;
77822;SDS011;67013;49.730;17.292;2023-03-01T07:14:26;14.20;;;12.70;;
77822;SDS011;67013;49.730;17.292;2023-03-01T07:16:56;13.80;;;12.40;;
77822;SDS011;67013;49.730;17.292;2023-03-01T07:19:26;13.00;;;11.60;;
77822;SDS011;67013;49.730;17.292;2023-03-01T07:21:56;11.70;;;10.40;;
77822;SDS011;67013;49.730;17.292;2023-03-01T07:24:25;15.10;;;13.50;;
77822;SDS011;67013;49.730;17.292;2023-03-01T07:26:55;11.90;;;10.70;;
77822;SDS011;67013;49.730;17.292;2023-03-01T07:29:25;14.60;;;13.10;;
77822;SDS011;67013;49.730;17.292;2023-03-01T07:31:55;15.20;;;13.70;;
77822;SDS011;67013;49.730;17.292;2023-03-01T07:34:24;14.20;;;12.80;;
77822;SDS011;67013;49.730;17.292;2023-03-01T07:36:54;14.40;;;13.00;;
77822;SDS011;67013;49.730;17.292;2023-03-01T07:39:23;13.70;;;12.30;;
77822;SDS011;67013;49.730;17.292;2023-03-01T07:41:53;13.00;;;11.70;;
77822;SDS011;67013;49.730;17.292;2023-03-01T07:44:22;13.00;;;11.80;;
77822;SDS011;67013;49.730;17.292;2023-03-01T07:46:52;13.30;;;11.90;;
77822;SDS011;67013;49.730;17.292;2023-03-01T07:49:22;11.50;;;10.40;;
77822;SDS011;67013;49.730;17.292;2023-03-01T07:51:53;14.30;;;12.90;;
77822;SDS011;67013;49.730;17.292;2023-03-01T07:54:23;11.40;;;10.30;;
77822;SDS011;67013;49.730;17.292;2023-03-01T07:56:52;11.90;;;10.60;;
77822;SDS011;67013;49.730;17.292;2023-03-01T07:59:23;10.60;;;9.50;;
77822;SDS011;67013;49.730;17.292;2023-03-01T08:01:55;11.10;;;10.00;;
77822;SDS011;67013;49.730;17.292;2023-03-01T08:04:25;12.20;;;11.00;;
77822;SDS011;67013;49.730;17.292;2023-03-01T08:06:54;12.90;;;11.30;;
77822;SDS011;67013;49.730;17.292;2023-03-01T08:09:24;12.70;;;11.10;;
77822;SDS011;67013;49.730;17.292;2023-03-01T08:11:53;12.20;;;11.10;;
77822;SDS011;67013;49.730;17.292;2023-03-01T08:14:24;7.80;;;7.00;;
77822;SDS011;67013;49.730;17.292;2023-03-01T08:16:53;11.00;;;9.90;;
77822;SDS011;67013;49.730;17.292;2023-03-01T08:19:23;10.40;;;9.40;;
77822;SDS011;67013;49.730;17.292;2023-03-01T08:21:54;9.30;;;8.00;;
77822;SDS011;67013;49.730;17.292;2023-03-01T08:24:26;8.90;;;8.00;;
77822;SDS011;67013;49.730;17.292;2023-03-01T08:26:55;9.00;;;8.10;;
77822;SDS011;67013;49.730;17.292;2023-03-01T08:29:25;8.50;;;7.70;;
77822;SDS011;67013;49.730;17.292;2023-03-01T08:31:54;9.30;;;8.40;;
77822;SDS011;67013;49.730;17.292;2023-03-01T08:34:24;10.50;;;9.40;;
77822;SDS011;67013;49.730;17.292;2023-03-01T08:36:53;9.70;;;8.70;;
77822;SDS011;67013;49.730;17.292;2023-03-01T08:39:23;10.40;;;8.70;;
77822;SDS011;67013;49.730;17.292;2023-03-01T08:41:52;9.20;;;8.30;;
77822;SDS011;67013;49.730;17.292;2023-03-01T08:44:21;8.40;;;7.60;;
77822;SDS011;67013;49.730;17.292;2023-03-01T08:46:51;9.90;;;8.90;;
77822;SDS011;67013;49.730;17.292;2023-03-01T08:49:22;7.70;;;6.90;;
77822;SDS011;67013;49.730;17.292;2023-03-01T08:51:51;9.40;;;8.60;;
77822;SDS011;67013;49.730;17.292;2023-03-01T08:54:21;9.80;;;8.80;;
77822;SDS011;67013;49.730;17.292;2023-03-01T08:56:51;11.60;;;10.50;;
77822;SDS011;67013;49.730;17.292;2023-03-01T08:59:20;9.20;;;8.30;;
77822;SDS011;67013;49.730;17.292;2023-03-01T09:01:49;8.30;;;7.50;;
77822;SDS011;67013;49.730;17.292;2023-03-01T09:04:19;8.00;;;7.20;;
77822;SDS011;67013;49.730;17.292;2023-03-01T09:06:48;9.00;;;8.10;;
77822;SDS011;67013;49.730;17.292;2023-03-01T09:09:18;8.90;;;8.00;;
77822;SDS011;67013;49.730;17.292;2023-03-01T09:11:47;7.90;;;6.50;;
77822;SDS011;67013;49.730;17.292;2023-03-01T09:14:17;13.30;;;8.10;;
77822;SDS011;67013;49.730;17.292;2023-03-01T09:16:46;8.00;;;7.20;;
77822;SDS011;67013;49.730;17.292;2023-03-01T09:19:16;7.80;;;7.00;;
77822;SDS011;67013;49.730;17.292;2023-03-01T09:21:45;8.50;;;7.60;;
77822;SDS011;67013;49.730;17.292;2023-03-01T09:24:20;8.20;;;7.10;;
77822;SDS011;67013;49.730;17.292;2023-03-01T09:26:51;8.30;;;7.10;;
77822;SDS011;67013;49.730;17.292;2023-03-01T09:29:23;8.80;;;7.90;;
77822;SDS011;67013;49.730;17.292;2023-03-01T09:31:52;8.90;;;8.00;;
77822;SDS011;67013;49.730;17.292;2023-03-01T09:34:22;7.50;;;6.70;;
77822;SDS011;67013;49.730;17.292;2023-03-01T09:36:52;8.90;;;8.00;;
77822;SDS011;67013;49.730;17.292;2023-03-01T09:39:21;7.70;;;6.90;;
77822;SDS011;67013;49.730;17.292;2023-03-01T09:41:53;8.20;;;7.30;;
77822;SDS011;67013;49.730;17.292;2023-03-01T09:44:29;8.10;;;7.30;;
77822;SDS011;67013;49.730;17.292;2023-03-01T09:47:04;8.90;;;7.00;;
77822;SDS011;67013;49.730;17.292;2023-03-01T09:49:39;7.00;;;6.10;;
77822;SDS011;67013;49.730;17.292;2023-03-01T09:52:19;6.70;;;5.90;;
77822;SDS011;67013;49.730;17.292;2023-03-01T09:54:56;7.00;;;6.10;;
77822;SDS011;67013;49.730;17.292;2023-03-01T09:57:28;7.80;;;7.00;;
77822;SDS011;67013;49.730;17.292;2023-03-01T10:00:07;8.10;;;6.70;;
77822;SDS011;67013;49.730;17.292;2023-03-01T10:02:46;7.90;;;6.80;;
77822;SDS011;67013;49.730;17.292;2023-03-01T10:05:33;8.10;;;6.60;;
77822;SDS011;67013;49.730;17.292;2023-03-01T10:08:28;8.00;;;6.70;;
77822;SDS011;67013;49.730;17.292;2023-03-01T10:11:03;11.40;;;6.30;;
77822;SDS011;67013;49.730;17.292;2023-03-01T10:13:45;8.90;;;5.90;;
77822;SDS011;67013;49.730;17.292;2023-03-01T10:16:21;8.30;;;5.80;;
77822;SDS011;67013;49.730;17.292;2023-03-01T10:18:56;8.50;;;6.30;;
77822;SDS011;67013;49.730;17.292;2023-03-01T10:21:29;8.50;;;6.20;;
77822;SDS011;67013;49.730;17.292;2023-03-01T10:24:05;9.00;;;6.90;;
77822;SDS011;67013;49.730;17.292;2023-03-01T10:26:43;9.40;;;6.20;;
77822;SDS011;67013;49.730;17.292;2023-03-01T10:29:20;9.50;;;7.20;;
77822;SDS011;67013;49.730;17.292;2023-03-01T10:31:54;9.30;;;7.50;;
77822;SDS011;67013;49.730;17.292;2023-03-01T10:34:27;11.10;;;7.60;;
77822;SDS011;67013;49.730;17.292;2023-03-01T10:36:59;11.40;;;7.30;;
77822;SDS011;67013;49.730;17.292;2023-03-01T10:39:38;10.60;;;7.20;;
77822;SDS011;67013;49.730;17.292;2023-03-01T10:42:26;9.40;;;6.80;;
77822;SDS011;67013;49.730;17.292;2023-03-01T10:44:58;10.20;;;6.50;;
77822;SDS011;67013;49.730;17.292;2023-03-01T10:47:41;13.20;;;8.60;;
77822;SDS011;67013;49.730;17.292;2023-03-01T10:50:19;12.90;;;8.40;;
77822;SDS011;67013;49.730;17.292;2023-03-01T10:52:57;9.90;;;6.90;;
77822;SDS011;67013;49.730;17.292;2023-03-01T10:55:31;8.00;;;5.40;;
77822;SDS011;67013;49.730;17.292;2023-03-01T10:58:07;13.50;;;8.20;;
77822;SDS011;67013;49.730;17.292;2023-03-01T11:00:49;13.20;;;8.30;;
77822;SDS011;67013;49.730;17.292;2023-03-01T11:03:21;9.50;;;7.20;;
77822;SDS011;67013;49.730;17.292;2023-03-01T11:08:31;10.80;;;7.40;;
77822;SDS011;67013;49.730;17.292;2023-03-01T11:11:09;12.40;;;8.00;;
77822;SDS011;67013;49.730;17.292;2023-03-01T11:13:52;12.00;;;7.30;;
77822;SDS011;67013;49.730;17.292;2023-03-01T11:16:28;12.90;;;8.30;;
77822;SDS011;67013;49.730;17.292;2023-03-01T11:19:01;10.60;;;7.10;;
77822;SDS011;67013;49.730;17.292;2023-03-01T11:21:47;8.80;;;5.40;;
77822;SDS011;67013;49.730;17.292;2023-03-01T11:24:28;10.80;;;7.20;;
77822;SDS011;67013;49.730;17.292;2023-03-01T11:27:02;10.70;;;7.30;;
77822;SDS011;67013;49.730;17.292;2023-03-01T11:29:37;9.20;;;5.50;;
77822;SDS011;67013;49.730;17.292;2023-03-01T11:32:11;10.90;;;7.10;;
77822;SDS011;67013;49.730;17.292;2023-03-01T11:34:43;12.20;;;8.50;;
77822;SDS011;67013;49.730;17.292;2023-03-01T11:37:19;13.10;;;7.60;;
77822;SDS011;67013;49.730;17.292;2023-03-01T11:40:02;12.80;;;8.30;;
77822;SDS011;67013;49.730;17.292;2023-03-01T11:42:45;8.70;;;5.90;;
77822;SDS011;67013;49.730;17.292;2023-03-01T11:45:20;8.80;;;6.30;;
77822;SDS011;67013;49.730;17.292;2023-03-01T11:47:58;11.00;;;7.70;;
77822;SDS011;67013;49.730;17.292;2023-03-01T11:50:41;10.10;;;6.80;;
77822;SDS011;67013;49.730;17.292;2023-03-01T11:53:23;8.90;;;5.60;;
77822;SDS011;67013;49.730;17.292;2023-03-01T11:56:05;14.20;;;9.20;;
77822;SDS011;67013;49.730;17.292;2023-03-01T11:58:48;12.60;;;8.90;;
77822;SDS011;67013;49.730;17.292;2023-03-01T12:01:35;12.50;;;9.30;;
77822;SDS011;67013;49.730;17.292;2023-03-01T12:07:16;12.60;;;8.40;;
77822;SDS011;67013;49.730;17.292;2023-03-01T12:09:59;16.10;;;9.80;;
77822;SDS011;67013;49.730;17.292;2023-03-01T12:12:47;15.50;;;10.90;;
77822;SDS011;67013;49.730;17.292;2023-03-01T12:15:34;14.30;;;10.40;;
77822;SDS011;67013;49.730;17.292;2023-03-01T12:21:51;15.00;;;10.30;;
77822;SDS011;67013;49.730;17.292;2023-03-01T12:24:35;15.80;;;10.60;;
77822;SDS011;67013;49.730;17.292;2023-03-01T12:27:19;18.80;;;12.40;;
77822;SDS011;67013;49.730;17.292;2023-03-01T12:29:57;13.90;;;9.70;;
77822;SDS011;67013;49.730;17.292;2023-03-01T12:32:45;15.60;;;11.00;;
77822;SDS011;67013;49.730;17.292;2023-03-01T12:35:31;18.80;;;12.90;;
77822;SDS011;67013;49.730;17.292;2023-03-01T12:40:46;16.30;;;10.50;;
77822;SDS011;67013;49.730;17.292;2023-03-01T12:43:31;15.30;;;11.10;;
77822;SDS011;67013;49.730;17.292;2023-03-01T12:46:13;15.10;;;11.30;;
77822;SDS011;67013;49.730;17.292;2023-03-01T12:48:54;16.10;;;12.10;;
77822;SDS011;67013;49.730;17.292;2023-03-01T12:51:34;17.60;;;12.00;;
77822;SDS011;67013;49.730;17.292;2023-03-01T12:54:07;15.30;;;10.70;;
77822;SDS011;67013;49.730;17.292;2023-03-01T12:56:42;18.90;;;13.30;;
77822;SDS011;67013;49.730;17.292;2023-03-01T12:59:19;17.50;;;12.60;;
77822;SDS011;67013;49.730;17.292;2023-03-01T13:01:55;17.80;;;12.00;;
77822;SDS011;67013;49.730;17.292;2023-03-01T13:04:34;17.60;;;11.50;;
77822;SDS011;67013;49.730;17.292;2023-03-01T13:07:19;19.40;;;13.20;;
77822;SDS011;67013;49.730;17.292;2023-03-01T13:09:59;19.50;;;12.60;;
77822;SDS011;67013;49.730;17.292;2023-03-01T13:12:52;19.20;;;13.50;;
77822;SDS011;67013;49.730;17.292;2023-03-01T13:15:29;17.90;;;12.10;;
77822;SDS011;67013;49.730;17.292;2023-03-01T13:18:01;16.90;;;12.00;;
77822;SDS011;67013;49.730;17.292;2023-03-01T13:23:27;19.70;;;14.10;;
77822;SDS011;67013;49.730;17.292;2023-03-01T13:26:03;18.90;;;13.20;;
77822;SDS011;67013;49.730;17.292;2023-03-01T13:28:57;18.30;;;12.30;;
77822;SDS011;67013;49.730;17.292;2023-03-01T13:34:43;18.00;;;13.20;;
77822;SDS011;67013;49.730;17.292;2023-03-01T13:37:22;18.90;;;13.40;;
77822;SDS011;67013;49.730;17.292;2023-03-01T13:40:00;20.50;;;14.30;;
77822;SDS011;67013;49.730;17.292;2023-03-01T13:42:37;22.40;;;15.00;;
77822;SDS011;67013;49.730;17.292;2023-03-01T13:45:31;23.40;;;15.80;;
77822;SDS011;67013;49.730;17.292;2023-03-01T13:48:08;26.00;;;16.50;;
77822;SDS011;67013;49.730;17.292;2023-03-01T13:50:45;23.20;;;15.30;;
77822;SDS011;67013;49.730;17.292;2023-03-01T13:53:18;26.70;;;18.10;;
77822;SDS011;67013;49.730;17.292;2023-03-01T13:55:51;24.10;;;16.40;;
77822;SDS011;67013;49.730;17.292;2023-03-01T13:58:24;20.00;;;13.10;;
77822;SDS011;67013;49.730;17.292;2023-03-01T14:03:30;21.20;;;13.10;;
77822;SDS011;67013;49.730;17.292;2023-03-01T14:06:03;24.00;;;15.80;;
77822;SDS011;67013;49.730;17.292;2023-03-01T14:08:35;23.30;;;15.90;;
77822;SDS011;67013;49.730;17.292;2023-03-01T14:11:20;18.00;;;12.40;;
77822;SDS011;67013;49.730;17.292;2023-03-01T14:14:28;26.00;;;16.60;;
77822;SDS011;67013;49.730;17.292;2023-03-01T14:17:08;24.60;;;14.80;;
77822;SDS011;67013;49.730;17.292;2023-03-01T14:19:56;22.40;;;15.40;;
77822;SDS011;67013;49.730;17.292;2023-03-01T14:22:32;24.00;;;15.30;;
77822;SDS011;67013;49.730;17.292;2023-03-01T14:25:05;26.00;;;16.80;;
77822;SDS011;67013;49.730;17.292;2023-03-01T14:27:44;23.60;;;15.20;;
77822;SDS011;67013;49.730;17.292;2023-03-01T14:30:23;24.60;;;15.70;;
77822;SDS011;67013;49.730;17.292;2023-03-01T14:35:24;21.30;;;13.90;;
77822;SDS011;67013;49.730;17.292;2023-03-01T14:37:54;18.10;;;11.10;;
77822;SDS011;67013;49.730;17.292;2023-03-01T14:40:25;17.10;;;10.90;;
77822;SDS011;67013;49.730;17.292;2023-03-01T14:42:58;18.50;;;12.40;;
77822;SDS011;67013;49.730;17.292;2023-03-01T14:45:29;22.60;;;14.40;;
77822;SDS011;67013;49.730;17.292;2023-03-01T14:48:00;24.30;;;15.70;;
77822;SDS011;67013;49.730;17.292;2023-03-01T14:50:32;24.80;;;16.90;;
77822;SDS011;67013;49.730;17.292;2023-03-01T14:53:03;22.00;;;14.00;;
77822;SDS011;67013;49.730;17.292;2023-03-01T14:55:35;21.90;;;14.10;;
77822;SDS011;67013;49.730;17.292;2023-03-01T14:58:10;24.90;;;16.50;;
77822;SDS011;67013;49.730;17.292;2023-03-01T15:00:43;23.70;;;15.30;;
77822;SDS011;67013;49.730;17.292;2023-03-01T15:03:19;24.30;;;15.40;;
77822;SDS011;67013;49.730;17.292;2023-03-01T15:05:55;25.90;;;17.10;;
77822;SDS011;67013;49.730;17.292;2023-03-01T15:08:25;22.80;;;15.00;;
77822;SDS011;67013;49.730;17.292;2023-03-01T15:11:01;21.00;;;13.60;;
77822;SDS011;67013;49.730;17.292;2023-03-01T15:13:34;23.90;;;16.00;;
77822;SDS011;67013;49.730;17.292;2023-03-01T15:16:10;20.30;;;14.40;;
77822;SDS011;67013;49.730;17.292;2023-03-01T15:18:44;29.60;;;16.80;;